Time;durP1;ratioP1;P1;durP2;ratioP2;P2;SDS_P1;SDS_P2;PMS_P1;PMS_P2;Temp;Humidity;BMP_temperature;BMP_pressure;BME280_temperature;BME280_humidity;BME280_pressure;Samples;Min_cycle;Max_cycle;Signal;HPM_P1;HPM_P2
2022/10/19 00:01:08;;;;;;;19.53;8.77;;;13.00;99.90;;;;;;5092844;28;20235;-72
2022/10/19 00:03:36;;;;;;;19.33;8.70;;;13.00;99.90;;;;;;5093298;28;20693;-71
2022/10/19 00:06:12;;;;;;;17.40;8.53;;;13.00;99.90;;;;;;5093290;28;20207;-72
2022/10/19 00:08:40;;;;;;;19.87;8.23;;;13.00;99.90;;;;;;5093472;28;20192;-71
2022/10/19 00:11:08;;;;;;;20.10;8.47;;;13.00;99.90;;;;;;5091446;28;20570;-73
2022/10/19 00:13:35;;;;;;;19.53;8.37;;;13.00;99.90;;;;;;5093061;28;20314;-72
2022/10/19 00:16:02;;;;;;;21.10;8.80;;;12.90;99.90;;;;;;5093117;28;20208;-72
2022/10/19 00:18:29;;;;;;;18.23;8.57;;;12.90;99.90;;;;;;5093072;28;20564;-74
2022/10/19 00:21:03;;;;;;;17.87;8.27;;;12.90;99.90;;;;;;5088059;28;20584;-72
2022/10/19 00:23:30;;;;;;;17.67;8.40;;;12.90;99.90;;;;;;5092560;28;20228;-73
2022/10/19 00:25:59;;;;;;;16.07;8.07;;;12.90;99.90;;;;;;5092588;28;20245;-73
2022/10/19 00:28:26;;;;;;;17.83;8.67;;;12.90;99.90;;;;;;5092408;28;20200;-72
2022/10/19 00:30:53;;;;;;;17.30;8.27;;;12.90;99.90;;;;;;5091329;28;20672;-72
2022/10/19 00:33:21;;;;;;;14.63;8.60;;;12.80;99.90;;;;;;5092206;28;20224;-73
2022/10/19 00:35:48;;;;;;;15.50;8.10;;;12.80;99.90;;;;;;5091679;28;20647;-72
2022/10/19 00:38:16;;;;;;;14.13;8.37;;;12.80;99.90;;;;;;5092822;28;20208;-73
2022/10/19 00:40:42;;;;;;;18.90;9.17;;;12.80;99.90;;;;;;5092895;28;20208;-72
2022/10/19 00:43:14;;;;;;;20.10;9.03;;;12.80;99.90;;;;;;5092349;28;20304;-72
2022/10/19 00:45:41;;;;;;;14.27;8.00;;;12.80;99.90;;;;;;5092501;28;20199;-72
2022/10/19 00:48:09;;;;;;;18.77;9.40;;;12.70;99.90;;;;;;5092567;28;20657;-72
2022/10/19 00:50:36;;;;;;;18.33;8.37;;;12.70;99.90;;;;;;5091246;28;20243;-72
2022/10/19 00:53:03;;;;;;;16.57;8.53;;;12.70;99.90;;;;;;5092058;28;20228;-72
2022/10/19 00:55:30;;;;;;;16.13;8.80;;;12.70;99.90;;;;;;5092603;28;20554;-73
2022/10/19 00:57:57;;;;;;;17.97;8.47;;;12.60;99.90;;;;;;5092170;28;20208;-70
2022/10/19 01:00:26;;;;;;;18.13;8.47;;;12.60;99.90;;;;;;5092291;28;20694;-73
2022/10/19 01:02:53;;;;;;;20.10;8.60;;;12.60;99.90;;;;;;5092042;28;20255;-72
2022/10/19 01:05:20;;;;;;;18.77;8.00;;;12.60;99.90;;;;;;5071160;28;20233;-72
2022/10/19 01:07:47;;;;;;;18.87;9.07;;;12.60;99.90;;;;;;5092136;28;20562;-72
2022/10/19 01:10:14;;;;;;;17.63;8.67;;;12.50;99.90;;;;;;5091930;28;20211;-73
2022/10/19 01:12:57;;;;;;;15.37;8.77;;;12.50;99.90;;;;;;5088809;28;21747;-71
2022/10/19 01:15:32;;;;;;;20.67;9.10;;;12.50;99.90;;;;;;5092105;28;20184;-74
2022/10/19 01:18:09;;;;;;;18.80;9.13;;;12.40;99.90;;;;;;5091586;28;20191;-74
2022/10/19 01:21:03;;;;;;;19.93;9.20;;;12.40;99.90;;;;;;5092400;28;20195;-72
2022/10/19 01:24:03;;;;;;;18.80;8.70;;;12.40;99.90;;;;;;5092280;28;20543;-72
2022/10/19 01:27:00;;;;;;;20.10;9.30;;;12.30;99.90;;;;;;5051844;28;20659;-72
2022/10/19 01:29:43;;;;;;;16.50;8.73;;;12.30;99.90;;;;;;5061077;28;20559;-72
2022/10/19 01:32:16;;;;;;;25.63;9.80;;;12.30;99.90;;;;;;5071630;28;20260;-72
2022/10/19 01:34:47;;;;;;;19.83;8.80;;;12.30;99.90;;;;;;5071915;28;20247;-72
2022/10/19 01:37:18;;;;;;;18.47;9.37;;;12.20;99.90;;;;;;5073067;28;20236;-72
2022/10/19 01:39:52;;;;;;;18.43;9.37;;;12.20;99.90;;;;;;5075849;28;20189;-72
2022/10/19 01:42:28;;;;;;;17.07;8.83;;;12.20;99.90;;;;;;5075861;28;20568;-73
2022/10/19 01:45:02;;;;;;;15.77;8.87;;;12.10;99.90;;;;;;5069346;28;20205;-72
2022/10/19 01:47:35;;;;;;;18.87;9.53;;;12.10;99.90;;;;;;5056238;28;20193;-72
2022/10/19 01:50:07;;;;;;;17.13;8.67;;;12.10;99.90;;;;;;5055558;28;20648;-73
2022/10/19 01:52:36;;;;;;;18.40;8.90;;;12.00;99.90;;;;;;5055779;28;20194;-72
2022/10/19 01:55:04;;;;;;;18.83;9.50;;;12.00;99.90;;;;;;5055417;28;20209;-72
2022/10/19 01:57:34;;;;;;;18.73;9.07;;;12.00;99.90;;;;;;5055521;28;20301;-74
2022/10/19 02:00:06;;;;;;;19.33;9.90;;;12.00;99.90;;;;;;5069603;28;20205;-72
2022/10/19 02:02:37;;;;;;;19.10;9.63;;;12.00;99.90;;;;;;5095414;28;20246;-73
2022/10/19 02:05:05;;;;;;;21.07;9.70;;;11.90;99.90;;;;;;5094242;28;20767;-72
2022/10/19 02:07:33;;;;;;;16.93;8.90;;;11.90;99.90;;;;;;5095970;28;20666;-72
2022/10/19 02:10:00;;;;;;;20.10;9.40;;;11.90;99.90;;;;;;5095444;28;20211;-74
2022/10/19 02:12:31;;;;;;;22.13;10.07;;;11.90;99.90;;;;;;5093964;28;20206;-72
2022/10/19 02:15:01;;;;;;;20.17;9.73;;;11.80;99.90;;;;;;5090399;28;20223;-72
2022/10/19 02:17:33;;;;;;;20.63;10.07;;;11.80;99.90;;;;;;5075738;28;20639;-73
2022/10/19 02:20:02;;;;;;;18.70;9.87;;;11.80;99.90;;;;;;5075176;28;20511;-72
2022/10/19 02:22:29;;;;;;;18.90;9.43;;;11.70;99.90;;;;;;5075089;28;20684;-72
2022/10/19 02:24:56;;;;;;;18.50;9.63;;;11.70;99.90;;;;;;5094204;28;20530;-72
2022/10/19 02:27:23;;;;;;;21.63;9.67;;;11.70;99.90;;;;;;5094738;28;20212;-72
2022/10/19 02:29:51;;;;;;;18.30;9.60;;;11.70;99.90;;;;;;5095177;28;20214;-73
2022/10/19 02:32:18;;;;;;;23.23;9.80;;;11.60;99.90;;;;;;5093038;28;20203;-72
2022/10/19 02:34:45;;;;;;;21.37;9.80;;;11.60;99.90;;;;;;5093689;28;20224;-71
2022/10/19 02:37:13;;;;;;;18.00;9.43;;;11.60;99.90;;;;;;5094927;28;20206;-71
2022/10/19 02:39:40;;;;;;;17.13;9.60;;;11.60;99.90;;;;;;5095000;28;20225;-72
2022/10/19 02:42:11;;;;;;;18.00;9.87;;;11.60;99.90;;;;;;5094736;28;20204;-73
2022/10/19 02:44:42;;;;;;;23.37;10.27;;;11.50;99.90;;;;;;5093697;28;20200;-72
2022/10/19 02:47:13;;;;;;;18.70;9.90;;;11.50;99.90;;;;;;5095060;28;20195;-73
2022/10/19 02:49:41;;;;;;;16.70;9.40;;;11.50;99.90;;;;;;5093505;28;20651;-71
2022/10/19 02:52:10;;;;;;;19.47;9.83;;;11.50;99.90;;;;;;5094320;28;20208;-72
2022/10/19 02:54:40;;;;;;;21.27;9.67;;;11.50;99.90;;;;;;5094631;28;20220;-72
2022/10/19 02:57:16;;;;;;;18.73;9.83;;;11.40;99.90;;;;;;5093096;28;20536;-72
2022/10/19 02:59:43;;;;;;;18.17;9.37;;;11.40;99.90;;;;;;5092890;28;20599;-72
2022/10/19 03:02:09;;;;;;;17.20;9.43;;;11.30;99.90;;;;;;5093305;28;20240;-72
2022/10/19 03:04:36;;;;;;;19.03;8.83;;;11.30;99.90;;;;;;5094147;28;20211;-72
2022/10/19 03:07:03;;;;;;;21.70;10.30;;;11.30;99.90;;;;;;5094326;28;20208;-73
2022/10/19 03:09:30;;;;;;;16.40;9.50;;;11.30;99.90;;;;;;5094595;28;20204;-73
2022/10/19 03:11:58;;;;;;;22.37;9.40;;;11.30;99.90;;;;;;5094101;28;20207;-72
2022/10/19 03:14:25;;;;;;;18.60;9.73;;;11.30;99.90;;;;;;5094483;28;20234;-72
2022/10/19 03:16:51;;;;;;;22.03;10.70;;;11.30;99.90;;;;;;5091562;28;20203;-72
2022/10/19 03:19:19;;;;;;;22.87;9.60;;;11.30;99.90;;;;;;5093263;28;20203;-72
2022/10/19 03:21:45;;;;;;;17.73;10.10;;;11.30;99.90;;;;;;5093885;28;20210;-72
2022/10/19 03:24:12;;;;;;;18.17;9.80;;;11.30;99.90;;;;;;5094284;28;20207;-73
2022/10/19 03:26:39;;;;;;;20.20;10.30;;;11.30;99.90;;;;;;5093998;28;20208;-72
2022/10/19 03:29:07;;;;;;;20.33;9.57;;;11.30;99.90;;;;;;5093487;28;20214;-72
2022/10/19 03:31:34;;;;;;;19.37;9.53;;;11.30;99.90;;;;;;5079978;28;20197;-73
2022/10/19 03:34:01;;;;;;;23.50;10.23;;;11.30;99.90;;;;;;5091479;28;20228;-73
2022/10/19 03:36:30;;;;;;;22.13;10.20;;;11.30;99.90;;;;;;5093893;28;20562;-72
2022/10/19 03:38:59;;;;;;;21.33;10.40;;;11.30;99.90;;;;;;5092495;28;20215;-73
2022/10/19 03:41:29;;;;;;;19.53;10.37;;;11.30;99.90;;;;;;5089461;28;20224;-73
2022/10/19 03:43:56;;;;;;;19.43;10.30;;;11.40;99.90;;;;;;5092537;28;20657;-72
2022/10/19 03:46:24;;;;;;;23.27;10.50;;;11.30;99.90;;;;;;5093744;28;20226;-72
2022/10/19 03:48:51;;;;;;;16.97;9.73;;;11.40;99.90;;;;;;5085521;28;20204;-72
2022/10/19 03:51:20;;;;;;;18.60;10.03;;;11.40;99.90;;;;;;5073665;28;20212;-72
2022/10/19 03:53:47;;;;;;;26.70;10.43;;;11.40;99.90;;;;;;5071108;28;20237;-72
2022/10/19 03:56:16;;;;;;;25.23;11.17;;;11.50;99.90;;;;;;5072917;28;20204;-73
2022/10/19 03:58:45;;;;;;;25.33;10.73;;;11.50;99.90;;;;;;5072774;28;20675;-72
2022/10/19 04:01:15;;;;;;;20.03;10.27;;;11.50;99.90;;;;;;5072577;28;20259;-73
2022/10/19 04:03:43;;;;;;;20.23;10.13;;;11.50;99.90;;;;;;5072987;28;20204;-72
2022/10/19 04:06:13;;;;;;;18.77;10.40;;;11.50;99.90;;;;;;5072937;28;20662;-72
2022/10/19 04:08:41;;;;;;;23.47;11.67;;;11.50;99.90;;;;;;5092220;28;20204;-73
2022/10/19 04:11:10;;;;;;;21.57;11.03;;;11.60;99.90;;;;;;5087315;28;20622;-72
2022/10/19 04:13:37;;;;;;;21.17;11.90;;;11.60;99.90;;;;;;5091998;28;20289;-71
2022/10/19 04:16:04;;;;;;;22.50;11.43;;;11.60;99.90;;;;;;5093266;28;20598;-71
2022/10/19 04:18:31;;;;;;;20.33;11.20;;;11.60;99.90;;;;;;5093075;28;20677;-72
2022/10/19 04:21:00;;;;;;;20.57;10.30;;;11.60;99.90;;;;;;5092986;28;20204;-72
2022/10/19 04:23:28;;;;;;;23.50;10.00;;;11.60;99.90;;;;;;5093249;28;20226;-73
2022/10/19 04:26:00;;;;;;;22.87;11.60;;;11.60;99.90;;;;;;5092916;28;20200;-73
2022/10/19 04:28:27;;;;;;;23.27;10.47;;;11.60;99.90;;;;;;5089861;28;20256;-72
2022/10/19 04:30:53;;;;;;;23.33;11.30;;;11.60;99.90;;;;;;5092656;28;20204;-73
2022/10/19 04:33:20;;;;;;;18.40;10.23;;;11.60;99.90;;;;;;5092651;28;20690;-72
2022/10/19 04:35:47;;;;;;;23.07;11.60;;;11.60;99.90;;;;;;5092671;28;20214;-74
2022/10/19 04:38:15;;;;;;;23.10;11.00;;;11.70;99.90;;;;;;5073324;28;20200;-73
2022/10/19 04:40:42;;;;;;;19.40;10.77;;;11.70;99.90;;;;;;5072223;28;20224;-73
2022/10/19 04:43:09;;;;;;;21.27;11.40;;;11.70;99.90;;;;;;5092433;28;20211;-71
2022/10/19 04:45:36;;;;;;;23.70;11.63;;;11.70;99.90;;;;;;5092238;28;20211;-71
2022/10/19 04:48:02;;;;;;;22.10;11.57;;;11.70;99.90;;;;;;5092565;28;20204;-73
2022/10/19 04:50:29;;;;;;;22.27;11.47;;;11.80;99.90;;;;;;5092574;28;20208;-73
2022/10/19 04:52:56;;;;;;;21.33;11.40;;;11.80;99.90;;;;;;5092936;28;20199;-72
2022/10/19 04:55:24;;;;;;;22.70;11.90;;;11.70;99.90;;;;;;5089811;28;20228;-73
2022/10/19 04:57:51;;;;;;;25.43;12.30;;;11.80;99.90;;;;;;5092389;28;20223;-72
2022/10/19 05:00:18;;;;;;;22.97;12.97;;;11.70;99.90;;;;;;5079463;28;20235;-72
2022/10/19 05:02:45;;;;;;;23.63;12.73;;;11.80;99.90;;;;;;5070558;28;20381;-72
2022/10/19 05:05:14;;;;;;;29.63;12.63;;;11.80;99.90;;;;;;5071628;28;20772;-72
2022/10/19 05:07:41;;;;;;;23.80;12.90;;;11.80;99.90;;;;;;5070808;28;20196;-73
2022/10/19 05:10:09;;;;;;;29.43;13.53;;;11.80;99.90;;;;;;5070160;28;20222;-71
2022/10/19 05:12:37;;;;;;;25.23;13.67;;;11.80;99.90;;;;;;5069728;28;20196;-72
2022/10/19 05:15:05;;;;;;;25.60;13.47;;;11.80;99.90;;;;;;5070133;28;20240;-73
2022/10/19 05:17:33;;;;;;;25.27;12.87;;;11.80;99.90;;;;;;5070646;28;20203;-72
2022/10/19 05:19:59;;;;;;;25.00;13.40;;;11.80;99.90;;;;;;5070786;28;20193;-72
2022/10/19 05:22:26;;;;;;;27.17;13.77;;;11.80;99.90;;;;;;5070401;28;20197;-72
2022/10/19 05:24:53;;;;;;;24.53;13.67;;;11.80;99.90;;;;;;5071019;28;20193;-71
2022/10/19 05:27:21;;;;;;;23.73;14.60;;;11.80;99.90;;;;;;5070508;28;20196;-71
2022/10/19 05:29:49;;;;;;;25.17;14.33;;;11.80;99.90;;;;;;5070105;28;20232;-73
2022/10/19 05:32:15;;;;;;;32.63;16.23;;;11.80;99.90;;;;;;5070609;28;20196;-72
2022/10/19 05:34:42;;;;;;;27.07;15.90;;;11.80;99.90;;;;;;5070619;28;20212;-74
2022/10/19 05:37:09;;;;;;;27.63;14.73;;;11.80;99.90;;;;;;5070635;28;20284;-73
2022/10/19 05:39:36;;;;;;;24.87;14.27;;;11.80;99.90;;;;;;5071881;28;20227;-73
2022/10/19 05:42:03;;;;;;;25.83;14.13;;;11.80;99.90;;;;;;5070803;28;20203;-73
2022/10/19 05:44:30;;;;;;;26.67;15.33;;;11.90;99.90;;;;;;5067689;28;20558;-72
2022/10/19 05:46:58;;;;;;;24.17;14.07;;;11.90;99.90;;;;;;5071461;28;20208;-72
2022/10/19 05:49:25;;;;;;;31.07;15.47;;;11.90;99.90;;;;;;5071289;28;20560;-71
2022/10/19 05:51:51;;;;;;;26.60;16.10;;;11.90;99.90;;;;;;5091831;28;20586;-72
2022/10/19 05:54:19;;;;;;;25.50;14.80;;;12.00;99.90;;;;;;5091466;28;20234;-70
2022/10/19 05:56:46;;;;;;;25.93;16.43;;;12.00;99.90;;;;;;5091694;28;20208;-72
2022/10/19 05:59:15;;;;;;;27.57;15.87;;;12.00;99.90;;;;;;5086028;28;20218;-71
2022/10/19 06:01:42;;;;;;;25.67;15.27;;;12.10;99.90;;;;;;5079995;28;20229;-73
2022/10/19 06:04:12;;;;;;;26.30;14.97;;;12.10;99.90;;;;;;5069981;28;20290;-73
2022/10/19 06:06:39;;;;;;;27.80;15.50;;;12.10;99.90;;;;;;5069954;28;20193;-72
2022/10/19 06:09:06;;;;;;;26.43;14.70;;;12.00;99.90;;;;;;5070171;28;20201;-73
2022/10/19 06:11:36;;;;;;;25.50;15.03;;;12.00;99.90;;;;;;5072889;28;20228;-72
2022/10/19 06:14:05;;;;;;;22.47;12.90;;;12.00;99.90;;;;;;5071838;28;20215;-73
2022/10/19 06:16:33;;;;;;;26.30;12.80;;;12.00;99.90;;;;;;5070293;28;20663;-74
2022/10/19 06:19:00;;;;;;;21.37;12.23;;;12.00;99.90;;;;;;5071509;28;20217;-74
2022/10/19 06:21:30;;;;;;;21.37;11.60;;;12.00;99.90;;;;;;5071254;28;20231;-75
2022/10/19 06:23:59;;;;;;;18.67;10.17;;;12.00;99.90;;;;;;5074098;28;20193;-74
2022/10/19 06:26:26;;;;;;;15.67;9.50;;;12.10;99.90;;;;;;5076925;28;20208;-72
2022/10/19 06:28:59;;;;;;;17.17;9.30;;;12.10;99.90;;;;;;5094128;28;20204;-72
2022/10/19 06:31:26;;;;;;;16.73;9.90;;;12.10;99.90;;;;;;5085225;28;20245;-72
2022/10/19 06:33:52;;;;;;;16.77;9.60;;;12.00;99.90;;;;;;5080904;28;20287;-71
2022/10/19 06:36:21;;;;;;;16.70;10.40;;;12.10;99.90;;;;;;5095067;28;20227;-73
2022/10/19 06:38:50;;;;;;;16.10;10.27;;;12.20;99.90;;;;;;5082868;28;20201;-74
2022/10/19 06:41:17;;;;;;;19.30;10.27;;;12.20;99.90;;;;;;5077461;28;20211;-73
2022/10/19 06:43:44;;;;;;;19.17;10.20;;;12.20;99.90;;;;;;5094652;28;20208;-71
2022/10/19 06:46:13;;;;;;;15.67;8.70;;;12.20;99.90;;;;;;5092159;28;20257;-72
2022/10/19 06:48:40;;;;;;;14.07;8.87;;;12.20;99.90;;;;;;5074382;28;20204;-73
2022/10/19 06:51:07;;;;;;;15.63;8.00;;;12.30;99.90;;;;;;5087638;28;20211;-74
2022/10/19 06:53:34;;;;;;;21.37;8.90;;;12.30;99.90;;;;;;5093620;28;20200;-73
2022/10/19 06:56:05;;;;;;;9.17;6.20;;;12.40;99.90;;;;;;5094247;28;20216;-72
2022/10/19 06:58:35;;;;;;;11.20;6.00;;;12.30;99.90;;;;;;5094148;28;20210;-72
2022/10/19 07:01:02;;;;;;;13.17;5.83;;;12.30;99.90;;;;;;5093837;28;20258;-71
2022/10/19 07:03:29;;;;;;;9.63;5.20;;;12.30;99.90;;;;;;5090174;28;20189;-70
2022/10/19 07:05:58;;;;;;;10.73;5.37;;;12.30;99.90;;;;;;5074008;28;20201;-69
2022/10/19 07:08:26;;;;;;;13.53;5.30;;;12.30;99.90;;;;;;5079465;28;20196;-72
2022/10/19 07:10:54;;;;;;;16.63;5.20;;;12.30;99.90;;;;;;5094342;28;20200;-70
2022/10/19 07:13:23;;;;;;;12.83;4.17;;;12.40;99.90;;;;;;5093895;28;20200;-74
2022/10/19 07:15:50;;;;;;;8.57;4.50;;;12.40;99.90;;;;;;5093694;28;20234;-69
2022/10/19 07:18:16;;;;;;;10.83;4.40;;;12.40;99.90;;;;;;5091000;28;20208;-72
2022/10/19 07:20:53;;;;;;;6.40;4.00;;;12.40;99.90;;;;;;5091454;28;20208;-73
2022/10/19 07:23:19;;;;;;;6.10;3.63;;;12.50;99.90;;;;;;5092921;28;20200;-72
2022/10/19 07:25:46;;;;;;;5.47;3.50;;;12.50;99.90;;;;;;5093888;28;20203;-75
2022/10/19 07:28:13;;;;;;;6.70;3.60;;;12.60;99.90;;;;;;5093338;28;20201;-73
2022/10/19 07:30:41;;;;;;;4.70;3.30;;;12.60;99.90;;;;;;5093697;28;20311;-73
2022/10/19 07:33:08;;;;;;;4.97;3.30;;;12.70;99.90;;;;;;5091308;28;20215;-72
2022/10/19 07:35:35;;;;;;;6.80;2.80;;;12.70;99.90;;;;;;5093492;28;20223;-73
2022/10/19 07:38:02;;;;;;;6.03;2.77;;;12.70;99.90;;;;;;5085813;28;20201;-70
2022/10/19 07:40:29;;;;;;;5.87;2.80;;;12.70;99.90;;;;;;5073172;28;20663;-71
2022/10/19 07:42:55;;;;;;;6.57;3.30;;;12.70;99.90;;;;;;5073331;28;20230;-69
2022/10/19 07:45:22;;;;;;;10.60;3.90;;;12.80;99.90;;;;;;5072930;28;20556;-69
2022/10/19 07:47:50;;;;;;;9.33;3.30;;;12.80;99.90;;;;;;5083454;28;20204;-75
2022/10/19 07:50:17;;;;;;;4.87;3.10;;;12.90;99.90;;;;;;5093710;28;20204;-74
2022/10/19 07:52:44;;;;;;;7.07;2.87;;;12.90;99.90;;;;;;5093320;28;20650;-76
2022/10/19 07:55:11;;;;;;;4.97;2.83;;;13.00;99.90;;;;;;5092844;28;20545;-73
2022/10/19 07:57:37;;;;;;;6.87;2.90;;;13.00;99.90;;;;;;5093310;28;20210;-72
2022/10/19 08:00:05;;;;;;;5.53;2.47;;;13.00;99.90;;;;;;5093091;28;20230;-73
2022/10/19 08:02:32;;;;;;;8.47;3.07;;;12.90;99.90;;;;;;5087962;28;20742;-73
2022/10/19 08:05:00;;;;;;;4.47;3.03;;;13.00;99.90;;;;;;5092145;28;20199;-73
2022/10/19 08:07:27;;;;;;;5.33;3.10;;;13.00;99.90;;;;;;5093216;28;20235;-72
2022/10/19 08:09:54;;;;;;;3.00;2.30;;;13.00;99.90;;;;;;5093583;28;20562;-74
2022/10/19 08:12:21;;;;;;;4.87;2.50;;;13.00;99.90;;;;;;5093060;28;20208;-73
2022/10/19 08:14:47;;;;;;;5.07;1.90;;;13.00;99.90;;;;;;5092796;28;20227;-72
2022/10/19 08:17:16;;;;;;;4.47;1.90;;;13.00;99.90;;;;;;5079840;28;20245;-71
2022/10/19 08:19:43;;;;;;;3.43;1.90;;;13.00;99.90;;;;;;5092811;28;20196;-72
2022/10/19 08:22:11;;;;;;;3.67;1.80;;;12.90;99.90;;;;;;5090703;28;20200;-71
2022/10/19 08:24:38;;;;;;;3.47;1.90;;;12.90;99.90;;;;;;5095090;28;20208;-74
2022/10/19 08:27:05;;;;;;;3.67;2.00;;;13.00;99.90;;;;;;5097207;28;20204;-71
2022/10/19 08:29:32;;;;;;;3.97;2.10;;;13.00;99.90;;;;;;5092733;28;20290;-71
2022/10/19 08:31:59;;;;;;;2.47;1.50;;;13.00;99.90;;;;;;5092550;28;20211;-71
2022/10/19 08:34:26;;;;;;;3.07;1.90;;;13.00;99.90;;;;;;5092772;28;20212;-72
2022/10/19 08:36:53;;;;;;;4.43;1.50;;;13.10;99.90;;;;;;5091153;28;20227;-71
2022/10/19 08:39:21;;;;;;;3.60;2.10;;;13.00;99.90;;;;;;5085483;28;20378;-72
2022/10/19 08:42:00;;;;;;;2.93;1.70;;;13.10;99.90;;;;;;5091544;28;20208;-70
2022/10/19 08:44:50;;;;;;;5.57;2.00;;;13.10;99.90;;;;;;5092795;28;20195;-74
2022/10/19 08:47:30;;;;;;;6.60;2.60;;;13.10;99.90;;;;;;5042931;28;20223;-73
2022/10/19 08:49:58;;;;;;;4.30;1.90;;;13.10;99.90;;;;;;5078068;28;20200;-72
2022/10/19 08:52:28;;;;;;;5.47;1.90;;;13.10;99.90;;;;;;5072191;28;20201;-73
2022/10/19 08:54:59;;;;;;;7.83;2.30;;;13.10;99.90;;;;;;5070948;28;20197;-72
2022/10/19 08:57:38;;;;;;;7.33;2.57;;;13.20;99.90;;;;;;5060741;28;20558;-72
2022/10/19 09:00:12;;;;;;;12.30;2.80;;;13.10;99.90;;;;;;5065137;28;20232;-71
2022/10/19 09:02:53;;;;;;;7.13;2.50;;;13.20;99.90;;;;;;5071030;28;20597;-72
2022/10/19 09:05:24;;;;;;;12.10;3.00;;;13.30;99.90;;;;;;5067971;28;20196;-71
2022/10/19 09:07:53;;;;;;;10.33;3.17;;;13.40;99.90;;;;;;5088498;28;20204;-73
2022/10/19 09:10:25;;;;;;;7.90;2.90;;;13.40;99.90;;;;;;5091785;28;20200;-71
2022/10/19 09:12:57;;;;;;;5.57;2.47;;;13.50;99.90;;;;;;5082716;28;20204;-70
2022/10/19 09:15:27;;;;;;;5.07;2.63;;;13.50;99.90;;;;;;5071880;28;20209;-70
2022/10/19 09:17:54;;;;;;;10.40;2.87;;;13.60;99.90;;;;;;5083529;28;20209;-72
2022/10/19 09:20:25;;;;;;;5.63;2.93;;;13.70;99.90;;;;;;5062973;28;20216;-73
2022/10/19 09:23:03;;;;;;;8.83;3.13;;;13.80;99.90;;;;;;5070944;28;20563;-72
2022/10/19 09:25:34;;;;;;;5.37;2.20;;;13.80;99.90;;;;;;5072156;28;20220;-72
2022/10/19 09:28:16;;;;;;;5.93;2.20;;;13.90;99.90;;;;;;5071689;28;20224;-71
2022/10/19 09:30:46;;;;;;;6.13;2.30;;;13.90;99.90;;;;;;5072016;28;20545;-72
2022/10/19 09:33:20;;;;;;;10.50;5.13;;;14.00;99.90;;;;;;5071186;28;20204;-73
2022/10/19 09:35:47;;;;;;;11.37;3.50;;;14.00;99.90;;;;;;5035833;28;20224;-71
2022/10/19 09:38:16;;;;;;;8.67;3.20;;;14.00;99.90;;;;;;5072142;28;20822;-72
2022/10/19 09:40:44;;;;;;;12.33;2.90;;;14.00;99.90;;;;;;5071434;28;20208;-71
2022/10/19 09:43:19;;;;;;;10.77;2.70;;;14.00;99.90;;;;;;5071507;28;20299;-72
2022/10/19 09:45:50;;;;;;;15.10;3.00;;;14.00;99.90;;;;;;5070403;28;20201;-73
2022/10/19 09:48:26;;;;;;;7.67;2.63;;;14.10;99.90;;;;;;5072015;28;20215;-71
2022/10/19 09:50:57;;;;;;;3.93;2.30;;;14.10;99.90;;;;;;5070282;28;20219;-72
2022/10/19 09:53:25;;;;;;;3.77;2.30;;;14.10;99.90;;;;;;5070162;28;20189;-74
2022/10/19 09:55:59;;;;;;;5.43;2.27;;;14.10;99.90;;;;;;5085466;28;20694;-73
2022/10/19 09:58:28;;;;;;;3.87;2.37;;;14.10;99.90;;;;;;5070064;28;20207;-70
2022/10/19 10:00:56;;;;;;;7.47;2.80;;;14.10;99.90;;;;;;5068055;28;20243;-73
2022/10/19 10:03:26;;;;;;;7.63;3.00;;;14.10;99.90;;;;;;5056319;28;20280;-70
2022/10/19 10:05:55;;;;;;;6.77;3.17;;;14.20;99.90;;;;;;5074920;28;20193;-71
2022/10/19 10:08:25;;;;;;;9.97;3.90;;;14.20;99.90;;;;;;5072204;28;20197;-70
2022/10/19 10:11:03;;;;;;;8.00;4.10;;;14.30;99.90;;;;;;5071158;28;20221;-73
2022/10/19 10:13:30;;;;;;;7.20;3.07;;;14.30;99.90;;;;;;5074604;28;20188;-70
2022/10/19 10:16:00;;;;;;;7.30;2.40;;;14.40;99.90;;;;;;5074581;28;20228;-71
2022/10/19 10:18:28;;;;;;;3.77;2.30;;;14.40;99.90;;;;;;5073909;28;20581;-72
2022/10/19 10:21:01;;;;;;;4.13;2.43;;;14.40;99.90;;;;;;5090703;28;20200;-73
2022/10/19 10:23:31;;;;;;;4.13;2.07;;;14.40;99.90;;;;;;5076935;28;20675;-72
2022/10/19 10:26:00;;;;;;;5.23;2.07;;;14.40;99.90;;;;;;5093258;28;20210;-70
2022/10/19 10:28:29;;;;;;;5.17;1.97;;;14.40;99.90;;;;;;5082535;28;20208;-71
2022/10/19 10:31:01;;;;;;;7.37;2.13;;;14.40;99.90;;;;;;5091446;28;20541;-73
2022/10/19 10:33:30;;;;;;;9.03;2.27;;;14.40;99.90;;;;;;5095186;28;20223;-71
2022/10/19 10:36:03;;;;;;;8.90;2.37;;;14.40;99.90;;;;;;5094528;28;20224;-72
2022/10/19 10:38:33;;;;;;;7.27;2.00;;;14.40;99.90;;;;;;5082874;28;20228;-72
2022/10/19 10:41:06;;;;;;;4.83;1.90;;;14.40;99.90;;;;;;5076476;28;20205;-71
2022/10/19 10:43:36;;;;;;;6.50;2.10;;;14.40;99.90;;;;;;5073482;28;20216;-71
2022/10/19 10:46:06;;;;;;;6.17;2.10;;;14.40;99.90;;;;;;5080004;28;20201;-72
2022/10/19 10:48:38;;;;;;;4.13;2.10;;;14.40;99.90;;;;;;5072178;28;20205;-70
2022/10/19 10:51:17;;;;;;;4.33;1.90;;;14.40;99.90;;;;;;5077472;28;20196;-71
2022/10/19 10:53:44;;;;;;;3.43;1.90;;;14.50;99.90;;;;;;5091185;28;20210;-72
2022/10/19 10:56:23;;;;;;;3.87;2.30;;;14.40;99.90;;;;;;5094488;28;20231;-71
2022/10/19 10:58:57;;;;;;;3.70;2.43;;;14.40;99.90;;;;;;5093954;28;20227;-70
2022/10/19 11:01:26;;;;;;;7.13;2.83;;;14.30;99.90;;;;;;5093282;28;20262;-70
2022/10/19 11:03:59;;;;;;;6.20;2.00;;;14.40;99.90;;;;;;5069949;28;20295;-71
2022/10/19 11:06:26;;;;;;;4.17;1.80;;;14.40;99.90;;;;;;5073315;28;20193;-69
2022/10/19 11:09:01;;;;;;;5.03;3.10;;;14.50;99.90;;;;;;5080989;28;20205;-70
2022/10/19 11:11:35;;;;;;;9.67;3.10;;;14.60;99.90;;;;;;5081673;28;20211;-70
2022/10/19 11:14:22;;;;;;;7.20;2.37;;;14.70;99.90;;;;;;5075903;28;20196;-70
2022/10/19 11:16:51;;;;;;;4.93;2.10;;;14.70;99.90;;;;;;5072605;28;20216;-70
2022/10/19 11:19:22;;;;;;;2.27;1.90;;;14.80;99.90;;;;;;5081338;28;20217;-74
2022/10/19 11:21:57;;;;;;;5.83;2.10;;;14.80;99.90;;;;;;5081871;28;20197;-73
2022/10/19 11:24:35;;;;;;;5.23;2.27;;;14.90;99.90;;;;;;5087103;28;20203;-72
2022/10/19 11:27:14;;;;;;;5.40;2.20;;;14.90;99.90;;;;;;5083698;28;20199;-71
2022/10/19 11:30:08;;;;;;;3.43;2.40;;;14.90;99.90;;;;;;5076200;28;20211;-71
2022/10/19 11:32:45;;;;;;;3.97;2.17;;;14.90;99.90;;;;;;5092852;28;20226;-71
2022/10/19 11:35:28;;;;;;;5.47;2.90;;;14.90;99.90;;;;;;5053617;28;20628;-70
2022/10/19 11:38:03;;;;;;;4.93;2.30;;;14.90;99.90;;;;;;5061790;28;20557;-72
2022/10/19 11:40:37;;;;;;;8.03;3.00;;;15.00;99.90;;;;;;5073189;28;20207;-71
2022/10/19 11:43:12;;;;;;;7.83;3.10;;;15.00;99.90;;;;;;5073348;28;20200;-72
2022/10/19 11:45:49;;;;;;;4.40;2.30;;;15.00;99.90;;;;;;5072448;28;20192;-71
2022/10/19 11:48:28;;;;;;;4.67;2.20;;;15.10;99.90;;;;;;5073206;28;20276;-73
2022/10/19 11:51:02;;;;;;;5.27;2.70;;;15.10;99.90;;;;;;5073536;28;20215;-70
2022/10/19 11:53:39;;;;;;;6.20;2.43;;;15.10;99.90;;;;;;5072893;28;20193;-71
2022/10/19 11:56:11;;;;;;;6.20;2.53;;;15.10;99.90;;;;;;5071393;28;20515;-70
2022/10/19 11:58:53;;;;;;;5.63;2.27;;;15.10;99.90;;;;;;5072766;28;20585;-71
2022/10/19 12:01:32;;;;;;;4.70;2.47;;;15.10;99.90;;;;;;5072922;28;20236;-69
2022/10/19 12:04:20;;;;;;;6.23;2.60;;;15.10;99.90;;;;;;5072595;28;20192;-71
2022/10/19 12:06:58;;;;;;;4.37;2.30;;;15.00;99.90;;;;;;5072477;28;20234;-73
2022/10/19 12:09:36;;;;;;;3.70;2.20;;;15.00;99.90;;;;;;5067469;28;20197;-69
2022/10/19 12:12:23;;;;;;;4.90;2.40;;;15.00;99.90;;;;;;5052975;28;20248;-72
2022/10/19 12:14:54;;;;;;;3.93;2.30;;;15.00;99.90;;;;;;5069156;28;20207;-71
2022/10/19 12:17:26;;;;;;;3.03;2.20;;;15.00;99.90;;;;;;5091989;28;20217;-71
2022/10/19 12:19:56;;;;;;;4.27;2.40;;;15.10;99.90;;;;;;5091869;28;20553;-72
2022/10/19 12:22:27;;;;;;;6.03;2.60;;;15.10;99.90;;;;;;5092806;28;20257;-71
2022/10/19 12:24:55;;;;;;;4.23;2.20;;;15.10;99.90;;;;;;5085196;28;20209;-70
2022/10/19 12:27:30;;;;;;;3.27;2.40;;;15.10;99.90;;;;;;5072612;28;20247;-71
2022/10/19 12:30:03;;;;;;;4.53;2.23;;;15.10;99.90;;;;;;5081228;28;20200;-71
2022/10/19 12:32:36;;;;;;;11.40;3.30;;;15.10;99.90;;;;;;5092990;28;20272;-70
2022/10/19 12:35:12;;;;;;;7.27;3.13;;;15.10;99.90;;;;;;5087666;28;20204;-72
2022/10/19 12:37:44;;;;;;;4.80;2.87;;;15.00;99.90;;;;;;5091155;28;20239;-71
2022/10/19 12:40:21;;;;;;;7.00;2.70;;;15.00;99.90;;;;;;5092560;28;20192;-72
2022/10/19 12:42:56;;;;;;;11.23;2.73;;;15.00;99.90;;;;;;5069259;28;20736;-70
2022/10/19 12:45:30;;;;;;;3.97;2.33;;;15.00;99.90;;;;;;5072614;28;20290;-70
2022/10/19 12:48:18;;;;;;;9.63;2.43;;;15.00;99.90;;;;;;5071418;28;20189;-73
2022/10/19 12:51:01;;;;;;;4.47;2.10;;;15.00;99.90;;;;;;5063632;28;20204;-71
2022/10/19 12:53:31;;;;;;;6.50;2.33;;;15.00;99.90;;;;;;5074671;28;20204;-70